Time;durP1;ratioP1;P1;durP2;ratioP2;P2;SDS_P1;SDS_P2;PMS_P1;PMS_P2;Temp;Humidity;BMP_temperature;BMP_pressure;BME280_temperature;BME280_humidity;BME280_pressure;Samples;Min_cycle;Max_cycle;Signal;HPM_P1;HPM_P2
2024/01/06 00:01:53;;;;;;;1.20;1.10;;;;;;;;;;4941592;29;20031;-48
2024/01/06 00:04:19;;;;;;;2.47;1.30;;;;;;;;;;4936420;29;20167;-47
2024/01/06 00:06:45;;;;;;;1.35;0.90;;;;;;;;;;4940234;29;20035;-46
2024/01/06 00:09:12;;;;;;;2.50;1.15;;;;;;;;;;4940270;29;20491;-48
2024/01/06 00:11:38;;;;;;;1.37;0.73;;;;;;;;;;4946000;29;20028;-47
2024/01/06 00:14:04;;;;;;;0.77;0.77;;;;;;;;;;4936533;29;20028;-48
2024/01/06 00:16:30;;;;;;;2.08;1.17;;;;;;;;;;4942459;29;20453;-47
2024/01/06 00:18:56;;;;;;;2.22;1.17;;;;;;;;;;4953249;29;20035;-48
2024/01/06 00:21:23;;;;;;;1.10;0.93;;;;;;;;;;4936548;29;20040;-47
2024/01/06 00:23:49;;;;;;;7.68;1.58;;;;;;;;;;4947811;29;20118;-46
2024/01/06 00:26:15;;;;;;;1.52;0.75;;;;;;;;;;4935354;29;20033;-48
2024/01/06 00:28:41;;;;;;;1.13;0.90;;;;;;;;;;4937188;29;20062;-47
2024/01/06 00:31:07;;;;;;;0.98;0.88;;;;;;;;;;4946636;29;20375;-46
2024/01/06 00:33:33;;;;;;;5.22;1.77;;;;;;;;;;4951583;29;20450;-47
2024/01/06 00:35:59;;;;;;;1.50;0.95;;;;;;;;;;4955377;29;20035;-47
2024/01/06 00:38:26;;;;;;;4.45;2.08;;;;;;;;;;4955171;29;20031;-47
2024/01/06 00:40:52;;;;;;;6.18;5.25;;;;;;;;;;4953753;29;20031;-46
2024/01/06 00:43:18;;;;;;;9.10;7.90;;;;;;;;;;4955007;29;20035;-48
2024/01/06 00:45:44;;;;;;;14.32;11.88;;;;;;;;;;4948384;29;20392;-48
2024/01/06 00:48:10;;;;;;;15.90;12.90;;;;;;;;;;4949890;29;20542;-47
2024/01/06 00:50:36;;;;;;;17.33;13.55;;;;;;;;;;4942716;29;20395;-47
2024/01/06 00:53:03;;;;;;;16.83;14.48;;;;;;;;;;4934495;29;20479;-47
2024/01/06 00:55:29;;;;;;;17.87;14.33;;;;;;;;;;4937055;29;20067;-46
2024/01/06 00:57:55;;;;;;;15.98;13.05;;;;;;;;;;4936793;29;20039;-46
2024/01/06 01:00:22;;;;;;;13.65;11.50;;;;;;;;;;4938605;29;20027;-47
2024/01/06 01:02:48;;;;;;;14.05;11.70;;;;;;;;;;4943222;28;20502;-47
2024/01/06 01:05:15;;;;;;;14.17;11.63;;;;;;;;;;4935650;29;20023;-47
2024/01/06 01:07:41;;;;;;;13.05;11.27;;;;;;;;;;4935624;29;20028;-46
2024/01/06 01:10:08;;;;;;;12.85;11.45;;;;;;;;;;4934386;29;20038;-47
2024/01/06 01:12:35;;;;;;;11.70;10.18;;;;;;;;;;4938336;29;20032;-49
2024/01/06 01:15:01;;;;;;;11.80;9.23;;;;;;;;;;4936383;29;20508;-46
2024/01/06 01:17:27;;;;;;;10.93;9.68;;;;;;;;;;4934260;29;20039;-47
2024/01/06 01:19:53;;;;;;;11.27;9.82;;;;;;;;;;4934064;29;20038;-48
2024/01/06 01:22:19;;;;;;;10.23;9.10;;;;;;;;;;4942144;29;20030;-47
2024/01/06 01:24:45;;;;;;;10.88;9.80;;;;;;;;;;4954389;29;20102;-47
2024/01/06 01:27:12;;;;;;;12.73;11.10;;;;;;;;;;4954489;29;20086;-50
2024/01/06 01:29:38;;;;;;;11.57;10.37;;;;;;;;;;4972402;23;20085;-47
2024/01/06 01:32:04;;;;;;;15.30;12.82;;;;;;;;;;4953978;29;20058;-49
2024/01/06 01:34:31;;;;;;;13.77;12.38;;;;;;;;;;4934620;29;20501;-48
2024/01/06 01:36:57;;;;;;;12.77;11.48;;;;;;;;;;4941593;29;20024;-48
2024/01/06 01:39:23;;;;;;;11.50;10.30;;;;;;;;;;4954296;29;20058;-51
2024/01/06 01:41:49;;;;;;;10.10;8.82;;;;;;;;;;4952794;28;20031;-52
2024/01/06 01:44:16;;;;;;;9.65;8.65;;;;;;;;;;4952853;29;20027;-51
2024/01/06 01:46:43;;;;;;;10.38;9.38;;;;;;;;;;4954173;29;20034;-47
2024/01/06 01:49:09;;;;;;;9.57;8.13;;;;;;;;;;4953735;29;20035;-47
2024/01/06 01:51:36;;;;;;;9.57;8.57;;;;;;;;;;4954118;29;20027;-45
2024/01/06 01:54:04;;;;;;;9.18;8.15;;;;;;;;;;4953898;28;20059;-47
2024/01/06 01:56:34;;;;;;;8.25;7.45;;;;;;;;;;4953935;29;20126;-45
2024/01/06 01:59:06;;;;;;;8.13;7.15;;;;;;;;;;4953522;29;20126;-46
2024/01/06 02:01:32;;;;;;;7.80;7.00;;;;;;;;;;4953663;28;20402;-46
2024/01/06 02:03:59;;;;;;;9.75;7.20;;;;;;;;;;4952454;29;20046;-45
2024/01/06 02:06:25;;;;;;;7.55;6.75;;;;;;;;;;4954031;29;20042;-47
2024/01/06 02:08:51;;;;;;;6.80;6.10;;;;;;;;;;4953431;29;20019;-46
2024/01/06 02:11:17;;;;;;;6.63;5.93;;;;;;;;;;4952259;29;20087;-46
2024/01/06 02:13:43;;;;;;;7.32;6.57;;;;;;;;;;4953479;29;20035;-45
2024/01/06 02:16:09;;;;;;;7.60;6.90;;;;;;;;;;4952243;29;20062;-46
2024/01/06 02:18:36;;;;;;;7.90;7.05;;;;;;;;;;4952388;29;20031;-48
2024/01/06 02:21:03;;;;;;;7.50;6.80;;;;;;;;;;4952069;29;20107;-47
2024/01/06 02:23:30;;;;;;;8.75;6.90;;;;;;;;;;4952321;29;20034;-47
2024/01/06 02:25:56;;;;;;;7.97;7.18;;;;;;;;;;4953696;29;20086;-46
2024/01/06 02:28:22;;;;;;;8.52;6.60;;;;;;;;;;4953177;29;20473;-47
2024/01/06 02:30:49;;;;;;;7.20;6.50;;;;;;;;;;4953073;29;20027;-45
2024/01/06 02:33:16;;;;;;;7.40;6.60;;;;;;;;;;4952916;29;20278;-45
2024/01/06 02:35:42;;;;;;;8.03;7.23;;;;;;;;;;4953876;29;20111;-46
2024/01/06 02:38:09;;;;;;;7.45;6.63;;;;;;;;;;4953592;29;20027;-51
2024/01/06 02:40:36;;;;;;;6.97;6.32;;;;;;;;;;4953302;28;20031;-46
2024/01/06 02:43:02;;;;;;;7.37;6.50;;;;;;;;;;4952182;29;20035;-48
2024/01/06 02:45:28;;;;;;;7.50;6.55;;;;;;;;;;4953822;28;20417;-48
2024/01/06 02:47:54;;;;;;;7.28;6.57;;;;;;;;;;4957098;29;20086;-47
2024/01/06 02:50:20;;;;;;;6.68;6.03;;;;;;;;;;4956085;29;20046;-45
2024/01/06 02:52:47;;;;;;;7.65;6.85;;;;;;;;;;4956073;29;20030;-49
2024/01/06 02:55:14;;;;;;;7.88;6.38;;;;;;;;;;4955448;28;20039;-45
2024/01/06 02:57:40;;;;;;;7.40;6.43;;;;;;;;;;4957167;29;20074;-47
2024/01/06 03:00:07;;;;;;;7.13;6.43;;;;;;;;;;4955504;29;20035;-48
2024/01/06 03:02:35;;;;;;;7.20;6.45;;;;;;;;;;4956704;29;20208;-47
2024/01/06 03:05:02;;;;;;;7.65;6.78;;;;;;;;;;4957011;28;20340;-49
2024/01/06 03:07:28;;;;;;;8.50;6.80;;;;;;;;;;4956645;29;20520;-46
2024/01/06 03:09:54;;;;;;;8.63;7.53;;;;;;;;;;4955424;29;20028;-49
2024/01/06 03:12:20;;;;;;;9.60;7.93;;;;;;;;;;4957240;29;20474;-49
2024/01/06 03:14:46;;;;;;;8.95;7.68;;;;;;;;;;4956835;29;20031;-47
2024/01/06 03:17:13;;;;;;;8.98;7.85;;;;;;;;;;4955064;29;20027;-47
2024/01/06 03:19:39;;;;;;;10.50;9.40;;;;;;;;;;4955209;29;20397;-49
2024/01/06 03:22:05;;;;;;;9.20;8.02;;;;;;;;;;4955283;29;20029;-47
2024/01/06 03:24:32;;;;;;;9.98;8.82;;;;;;;;;;4956594;29;20468;-50
2024/01/06 03:26:58;;;;;;;10.30;8.07;;;;;;;;;;4956538;29;20039;-47
2024/01/06 03:29:24;;;;;;;11.23;8.63;;;;;;;;;;4956348;28;20114;-46
2024/01/06 03:31:50;;;;;;;12.77;10.10;;;;;;;;;;4956334;29;20034;-47
2024/01/06 03:34:16;;;;;;;11.85;10.02;;;;;;;;;;4956024;29;20038;-46
2024/01/06 03:36:42;;;;;;;12.73;11.38;;;;;;;;;;4955945;28;20110;-47
2024/01/06 03:39:10;;;;;;;14.23;10.68;;;;;;;;;;4955299;29;20031;-46
2024/01/06 03:41:36;;;;;;;11.52;10.20;;;;;;;;;;4938759;29;20103;-47
2024/01/06 03:44:02;;;;;;;12.27;10.30;;;;;;;;;;4956198;28;20160;-46
2024/01/06 03:46:28;;;;;;;11.65;9.88;;;;;;;;;;4955864;29;20027;-49
2024/01/06 03:48:54;;;;;;;12.40;9.82;;;;;;;;;;4954472;29;20598;-45
2024/01/06 03:51:22;;;;;;;12.25;10.05;;;;;;;;;;4955712;29;20023;-47
2024/01/06 03:53:48;;;;;;;11.48;10.05;;;;;;;;;;4955624;29;20031;-48
2024/01/06 03:56:14;;;;;;;11.95;10.35;;;;;;;;;;4954029;28;20027;-47
2024/01/06 03:58:40;;;;;;;12.23;10.50;;;;;;;;;;4954513;29;20143;-49
2024/01/06 04:01:06;;;;;;;12.23;10.45;;;;;;;;;;4954337;29;20054;-48
2024/01/06 04:03:33;;;;;;;12.10;10.10;;;;;;;;;;4954308;29;20039;-49
2024/01/06 04:05:59;;;;;;;12.52;10.52;;;;;;;;;;4938748;29;20031;-47
2024/01/06 04:08:25;;;;;;;12.75;10.30;;;;;;;;;;4955064;28;20055;-49
2024/01/06 04:10:51;;;;;;;12.05;10.68;;;;;;;;;;4955770;29;20029;-47
2024/01/06 04:13:17;;;;;;;12.07;10.80;;;;;;;;;;4955733;28;20029;-46
2024/01/06 04:15:44;;;;;;;14.03;11.20;;;;;;;;;;4954444;29;20106;-48
2024/01/06 04:18:10;;;;;;;13.87;10.23;;;;;;;;;;4955468;29;20034;-48
2024/01/06 04:20:36;;;;;;;13.35;10.85;;;;;;;;;;4954392;29;20027;-47
2024/01/06 04:23:03;;;;;;;13.77;11.57;;;;;;;;;;4954051;29;20065;-48
2024/01/06 04:25:29;;;;;;;13.45;10.95;;;;;;;;;;4955449;29;20267;-46
2024/01/06 04:27:55;;;;;;;11.50;10.15;;;;;;;;;;4954470;29;20035;-49
2024/01/06 04:30:21;;;;;;;14.07;11.38;;;;;;;;;;4955058;29;20031;-47
2024/01/06 04:32:48;;;;;;;13.20;10.90;;;;;;;;;;4955300;28;20032;-46
2024/01/06 04:35:14;;;;;;;12.65;10.93;;;;;;;;;;4955198;28;20410;-46
2024/01/06 04:37:41;;;;;;;15.20;12.65;;;;;;;;;;4955696;28;20453;-46
2024/01/06 04:40:08;;;;;;;13.80;11.85;;;;;;;;;;4955600;28;20057;-48
2024/01/06 04:42:34;;;;;;;13.57;11.43;;;;;;;;;;4955159;29;20039;-46
2024/01/06 04:45:00;;;;;;;15.20;12.27;;;;;;;;;;4954830;29;20035;-48
2024/01/06 04:47:27;;;;;;;13.83;12.10;;;;;;;;;;4954874;29;20023;-51
2024/01/06 04:49:53;;;;;;;14.70;12.77;;;;;;;;;;4954979;29;20046;-50
2024/01/06 04:52:20;;;;;;;13.80;11.73;;;;;;;;;;4954887;28;20110;-48
2024/01/06 04:54:46;;;;;;;14.00;11.70;;;;;;;;;;4954670;28;20027;-47
2024/01/06 04:57:12;;;;;;;13.73;11.70;;;;;;;;;;4953469;29;20034;-51
2024/01/06 04:59:38;;;;;;;15.77;12.85;;;;;;;;;;4954902;29;20120;-49
2024/01/06 05:02:06;;;;;;;15.77;12.15;;;;;;;;;;4954933;28;20038;-47
2024/01/06 05:04:32;;;;;;;;;;;;;;;;;;4955189;29;20033;-46
2024/01/06 05:06:59;;;;;;;14.93;11.93;;;;;;;;;;4954666;28;19910;-50
2024/01/06 05:09:28;;;;;;;14.27;11.97;;;;;;;;;;4952867;28;20032;-48
2024/01/06 05:11:54;;;;;;;17.30;13.75;;;;;;;;;;4954842;29;20031;-47
2024/01/06 05:14:20;;;;;;;17.52;14.20;;;;;;;;;;4954668;29;20031;-50
2024/01/06 05:16:47;;;;;;;16.47;13.80;;;;;;;;;;4954894;28;20046;-47
2024/01/06 05:19:19;;;;;;;20.20;16.40;;;;;;;;;;4953535;28;20031;-48
2024/01/06 05:21:45;;;;;;;17.02;14.48;;;;;;;;;;4954750;28;20035;-47
2024/01/06 05:24:11;;;;;;;19.63;15.67;;;;;;;;;;4954526;29;20032;-48
2024/01/06 05:26:37;;;;;;;19.63;16.00;;;;;;;;;;4953501;29;20031;-47
2024/01/06 05:29:04;;;;;;;20.48;16.35;;;;;;;;;;4954338;29;20039;-48
2024/01/06 05:31:30;;;;;;;20.63;16.17;;;;;;;;;;4954515;29;20110;-47
2024/01/06 05:33:56;;;;;;;23.48;18.17;;;;;;;;;;4952932;28;20027;-47
2024/01/06 05:36:22;;;;;;;22.73;17.98;;;;;;;;;;4954471;29;20070;-51
2024/01/06 05:38:48;;;;;;;24.45;18.05;;;;;;;;;;4954338;29;20561;-48
2024/01/06 05:41:14;;;;;;;25.65;17.70;;;;;;;;;;4954480;29;20430;-49
2024/01/06 05:43:41;;;;;;;25.13;19.45;;;;;;;;;;4954116;29;20034;-49
2024/01/06 05:46:08;;;;;;;25.17;18.73;;;;;;;;;;4953052;29;20027;-47
2024/01/06 05:48:34;;;;;;;25.23;18.95;;;;;;;;;;4954129;29;20086;-50
2024/01/06 05:51:00;;;;;;;24.07;18.37;;;;;;;;;;4953030;29;20035;-51
2024/01/06 05:53:26;;;;;;;25.30;18.75;;;;;;;;;;4953992;29;20031;-50
2024/01/06 05:55:53;;;;;;;25.88;19.77;;;;;;;;;;4952838;29;20429;-52
2024/01/06 05:58:19;;;;;;;24.42;18.73;;;;;;;;;;4952811;29;20087;-49
2024/01/06 06:00:46;;;;;;;25.90;19.90;;;;;;;;;;4954068;29;20038;-52
2024/01/06 06:03:12;;;;;;;23.40;18.88;;;;;;;;;;4952658;29;20065;-51
2024/01/06 06:05:39;;;;;;;25.63;18.55;;;;;;;;;;4954086;29;20513;-47
2024/01/06 06:08:05;;;;;;;25.23;19.13;;;;;;;;;;4953874;29;20601;-47
2024/01/06 06:10:41;;;;;;;23.27;17.63;;;;;;;;;;4952584;29;20516;-46
2024/01/06 06:13:10;;;;;;;23.58;18.02;;;;;;;;;;4953732;29;20034;-48
2024/01/06 06:15:37;;;;;;;24.15;18.08;;;;;;;;;;4954162;29;20382;-47
2024/01/06 06:18:03;;;;;;;22.57;17.93;;;;;;;;;;4953788;29;20118;-47
2024/01/06 06:20:29;;;;;;;21.73;16.65;;;;;;;;;;4953700;29;20034;-49
2024/01/06 06:22:55;;;;;;;23.77;18.13;;;;;;;;;;4953748;29;20035;-47
2024/01/06 06:25:21;;;;;;;20.67;16.90;;;;;;;;;;4953481;29;20149;-46
2024/01/06 06:27:48;;;;;;;22.50;17.60;;;;;;;;;;4953692;29;20043;-47
2024/01/06 06:30:14;;;;;;;21.17;15.85;;;;;;;;;;4953451;29;20039;-50
2024/01/06 06:32:40;;;;;;;20.97;16.30;;;;;;;;;;4953632;29;20030;-46
2024/01/06 06:35:07;;;;;;;19.13;14.80;;;;;;;;;;4953518;29;20266;-50
2024/01/06 06:37:33;;;;;;;19.83;15.13;;;;;;;;;;4953774;28;20027;-50
2024/01/06 06:39:59;;;;;;;21.77;15.20;;;;;;;;;;4953603;29;20094;-47
2024/01/06 06:42:26;;;;;;;21.08;16.15;;;;;;;;;;4953573;29;20483;-47
2024/01/06 06:44:52;;;;;;;20.13;15.43;;;;;;;;;;4953407;29;20430;-47
2024/01/06 06:47:19;;;;;;;20.88;15.73;;;;;;;;;;4953808;29;20043;-48
2024/01/06 06:49:45;;;;;;;20.15;15.18;;;;;;;;;;4953355;29;20538;-48
2024/01/06 06:52:12;;;;;;;21.83;16.13;;;;;;;;;;4953442;29;20032;-49
2024/01/06 06:54:38;;;;;;;19.85;14.80;;;;;;;;;;4953231;29;20082;-48
2024/01/06 06:57:05;;;;;;;22.98;15.38;;;;;;;;;;4952198;29;20031;-49
2024/01/06 06:59:31;;;;;;;25.70;16.13;;;;;;;;;;4953300;29;20553;-47
2024/01/06 07:01:57;;;;;;;21.48;15.30;;;;;;;;;;4953442;28;20031;-48
2024/01/06 07:04:25;;;;;;;23.60;16.87;;;;;;;;;;4953353;29;20027;-47
2024/01/06 07:06:52;;;;;;;19.85;14.50;;;;;;;;;;4953365;29;20524;-48
2024/01/06 07:09:18;;;;;;;20.60;15.10;;;;;;;;;;4953197;29;20045;-48
2024/01/06 07:11:44;;;;;;;27.25;18.27;;;;;;;;;;4953547;29;20031;-48
2024/01/06 07:14:11;;;;;;;24.23;16.55;;;;;;;;;;4953137;29;20581;-48
2024/01/06 07:16:37;;;;;;;23.77;17.93;;;;;;;;;;4953344;29;20027;-50
2024/01/06 07:19:03;;;;;;;25.50;18.45;;;;;;;;;;4952042;29;20098;-49
2024/01/06 07:21:30;;;;;;;20.67;15.00;;;;;;;;;;4953343;29;20050;-53
2024/01/06 07:23:56;;;;;;;23.83;18.70;;;;;;;;;;4953100;29;20024;-49
2024/01/06 07:26:22;;;;;;;21.17;16.03;;;;;;;;;;4953275;29;20034;-49
2024/01/06 07:28:48;;;;;;;25.20;17.27;;;;;;;;;;4953410;29;20042;-50
2024/01/06 07:31:15;;;;;;;22.88;17.05;;;;;;;;;;4953750;28;20034;-56
2024/01/06 07:33:41;;;;;;;25.40;18.00;;;;;;;;;;4956754;29;20015;-55
2024/01/06 07:36:07;;;;;;;24.35;18.40;;;;;;;;;;4956577;29;20625;-53
2024/01/06 07:38:33;;;;;;;24.75;17.77;;;;;;;;;;4956961;29;20023;-55
2024/01/06 07:40:59;;;;;;;26.13;18.75;;;;;;;;;;4956778;29;20111;-47
2024/01/06 07:43:25;;;;;;;23.83;17.90;;;;;;;;;;4955049;29;20505;-48
2024/01/06 07:45:53;;;;;;;25.30;17.98;;;;;;;;;;4955345;29;20038;-49
2024/01/06 07:48:19;;;;;;;27.85;19.92;;;;;;;;;;4955647;28;20114;-47
2024/01/06 07:50:45;;;;;;;30.05;21.75;;;;;;;;;;4955941;29;20085;-47
2024/01/06 07:53:13;;;;;;;33.60;23.73;;;;;;;;;;4956162;28;20062;-48
2024/01/06 07:55:40;;;;;;;33.35;23.40;;;;;;;;;;4955997;29;20042;-48
2024/01/06 07:58:06;;;;;;;31.05;22.25;;;;;;;;;;4956023;28;20397;-50
2024/01/06 08:00:32;;;;;;;37.53;24.97;;;;;;;;;;4955569;29;20054;-48
2024/01/06 08:02:58;;;;;;;35.13;23.33;;;;;;;;;;4956081;29;20031;-48
2024/01/06 08:05:24;;;;;;;30.97;21.73;;;;;;;;;;4955575;28;20074;-46
2024/01/06 08:07:52;;;;;;;34.55;23.10;;;;;;;;;;4954662;29;20544;-47
2024/01/06 08:10:18;;;;;;;34.88;24.88;;;;;;;;;;4955456;28;20553;-51
2024/01/06 08:12:44;;;;;;;40.05;26.77;;;;;;;;;;4955841;29;20059;-47
2024/01/06 08:15:10;;;;;;;34.92;24.88;;;;;;;;;;4955542;29;20054;-47
2024/01/06 08:17:37;;;;;;;37.15;26.05;;;;;;;;;;4951528;29;20023;-51
2024/01/06 08:20:03;;;;;;;33.72;24.55;;;;;;;;;;4955264;29;20397;-47
2024/01/06 08:22:29;;;;;;;39.90;24.70;;;;;;;;;;4955691;29;20137;-48
2024/01/06 08:24:56;;;;;;;41.42;25.98;;;;;;;;;;4955220;29;20071;-49
2024/01/06 08:27:23;;;;;;;38.38;26.25;;;;;;;;;;4956006;29;20035;-47
2024/01/06 08:29:51;;;;;;;36.63;24.33;;;;;;;;;;4955196;29;20047;-48
2024/01/06 08:32:17;;;;;;;38.63;28.02;;;;;;;;;;4955212;29;20094;-47
2024/01/06 08:34:43;;;;;;;38.63;25.87;;;;;;;;;;4955062;29;20050;-49
2024/01/06 08:37:09;;;;;;;36.78;25.15;;;;;;;;;;4955389;29;20019;-46
2024/01/06 08:39:35;;;;;;;43.25;27.17;;;;;;;;;;4954129;28;20042;-49
2024/01/06 08:42:02;;;;;;;41.33;25.85;;;;;;;;;;4955096;29;20133;-51
2024/01/06 08:44:28;;;;;;;38.65;26.20;;;;;;;;;;4954588;28;20039;-47
2024/01/06 08:46:54;;;;;;;41.35;26.83;;;;;;;;;;4954712;29;20023;-51
2024/01/06 08:49:20;;;;;;;43.28;27.35;;;;;;;;;;4955065;29;20043;-46
2024/01/06 08:51:47;;;;;;;39.22;24.75;;;;;;;;;;4954851;29;20027;-47
2024/01/06 08:54:13;;;;;;;38.05;25.80;;;;;;;;;;4935847;29;20115;-47
2024/01/06 08:56:39;;;;;;;40.70;26.27;;;;;;;;;;4951463;29;20027;-47
2024/01/06 08:59:05;;;;;;;37.28;23.25;;;;;;;;;;4955033;29;20027;-48
2024/01/06 09:01:31;;;;;;;34.75;23.83;;;;;;;;;;4954572;29;20019;-47
2024/01/06 09:03:58;;;;;;;32.63;22.83;;;;;;;;;;4954919;29;20085;-47
2024/01/06 09:06:24;;;;;;;33.33;23.00;;;;;;;;;;4954732;28;20516;-47
2024/01/06 09:08:50;;;;;;;33.38;22.73;;;;;;;;;;4954801;29;20042;-47
2024/01/06 09:11:16;;;;;;;31.85;22.58;;;;;;;;;;4953357;29;20027;-48
2024/01/06 09:13:42;;;;;;;29.27;20.60;;;;;;;;;;4954725;29;20023;-48
2024/01/06 09:16:08;;;;;;;32.25;23.02;;;;;;;;;;4954015;29;20027;-48
2024/01/06 09:18:35;;;;;;;27.77;19.85;;;;;;;;;;4954604;28;20463;-48
2024/01/06 09:21:01;;;;;;;26.42;19.27;;;;;;;;;;4952900;29;20058;-47
2024/01/06 09:23:27;;;;;;;27.52;18.73;;;;;;;;;;4954358;29;20041;-48
2024/01/06 09:25:53;;;;;;;29.33;20.05;;;;;;;;;;4954148;29;20031;-47
2024/01/06 09:28:21;;;;;;;30.52;19.33;;;;;;;;;;4954482;29;20114;-46
2024/01/06 09:30:47;;;;;;;27.55;21.17;;;;;;;;;;4953890;29;20051;-48
2024/01/06 09:33:15;;;;;;;27.50;19.95;;;;;;;;;;4954290;29;20027;-47
2024/01/06 09:35:43;;;;;;;28.50;20.75;;;;;;;;;;4954172;29;20054;-48
2024/01/06 09:38:09;;;;;;;29.65;20.48;;;;;;;;;;4946092;29;20054;-50
2024/01/06 09:40:36;;;;;;;30.17;21.67;;;;;;;;;;4952639;28;20134;-51
2024/01/06 09:43:02;;;;;;;26.40;20.00;;;;;;;;;;4954106;29;20031;-50
2024/01/06 09:45:29;;;;;;;25.87;20.77;;;;;;;;;;4953964;28;20031;-48
2024/01/06 09:47:56;;;;;;;25.77;18.90;;;;;;;;;;4953788;29;20035;-51
2024/01/06 09:50:22;;;;;;;28.03;20.57;;;;;;;;;;4953710;29;20019;-48
2024/01/06 09:52:53;;;;;;;28.10;19.92;;;;;;;;;;4954177;29;20274;-48
2024/01/06 09:55:26;;;;;;;32.33;23.17;;;;;;;;;;4953207;28;20023;-49
2024/01/06 09:57:52;;;;;;;30.42;21.48;;;;;;;;;;4952784;29;20085;-51
2024/01/06 10:00:20;;;;;;;25.25;18.25;;;;;;;;;;4953624;29;20039;-50
2024/01/06 10:02:46;;;;;;;25.27;18.58;;;;;;;;;;4953796;29;20039;-50
2024/01/06 10:05:13;;;;;;;28.90;19.67;;;;;;;;;;4953371;29;20023;-47
2024/01/06 10:07:43;;;;;;;29.65;21.05;;;;;;;;;;4953718;29;20034;-49
2024/01/06 10:10:10;;;;;;;29.60;20.35;;;;;;;;;;4953238;29;20083;-50
2024/01/06 10:12:40;;;;;;;26.38;18.63;;;;;;;;;;4948190;29;20024;-48
2024/01/06 10:15:07;;;;;;;29.02;20.58;;;;;;;;;;4952707;29;20038;-49
2024/01/06 10:17:33;;;;;;;23.42;18.40;;;;;;;;;;4953446;29;20023;-47
2024/01/06 10:20:00;;;;;;;27.02;18.85;;;;;;;;;;4953298;29;20730;-49
2024/01/06 10:22:27;;;;;;;29.75;20.33;;;;;;;;;;4953567;29;20035;-49
2024/01/06 10:24:55;;;;;;;26.02;19.20;;;;;;;;;;4953207;28;20027;-47
2024/01/06 10:27:22;;;;;;;26.67;19.45;;;;;;;;;;4951628;29;20031;-46
2024/01/06 10:29:48;;;;;;;25.73;18.90;;;;;;;;;;4952900;28;20067;-46
2024/01/06 10:32:14;;;;;;;28.80;19.45;;;;;;;;;;4952091;29;20019;-48
2024/01/06 10:34:40;;;;;;;25.37;18.77;;;;;;;;;;4953198;29;20019;-47
2024/01/06 10:37:07;;;;;;;25.48;18.48;;;;;;;;;;4953040;29;20102;-45
2024/01/06 10:39:33;;;;;;;27.17;18.63;;;;;;;;;;4953328;29;20086;-47
2024/01/06 10:42:00;;;;;;;27.07;18.63;;;;;;;;;;4951813;29;20035;-47
2024/01/06 10:44:26;;;;;;;28.38;18.90;;;;;;;;;;4953336;29;20039;-49
2024/01/06 10:46:53;;;;;;;24.63;17.38;;;;;;;;;;4952733;29;20498;-47
2024/01/06 10:49:23;;;;;;;26.33;19.33;;;;;;;;;;4953431;29;20043;-47
2024/01/06 10:51:50;;;;;;;25.48;18.73;;;;;;;;;;4951619;29;20050;-47
2024/01/06 10:54:18;;;;;;;24.05;17.20;;;;;;;;;;4951952;29;20131;-47
2024/01/06 10:56:45;;;;;;;22.95;16.33;;;;;;;;;;4952892;29;20053;-47
2024/01/06 10:59:12;;;;;;;21.10;15.02;;;;;;;;;;4953188;29;20035;-47
2024/01/06 11:01:39;;;;;;;22.10;15.95;;;;;;;;;;4952736;29;20039;-48
2024/01/06 11:04:06;;;;;;;21.48;16.48;;;;;;;;;;4984266;28;20456;-48
2024/01/06 11:06:32;;;;;;;22.50;17.38;;;;;;;;;;4953554;28;20074;-49
2024/01/06 11:09:10;;;;;;;22.40;18.20;;;;;;;;;;4957155;29;20416;-47
2024/01/06 11:11:39;;;;;;;21.60;16.50;;;;;;;;;;4956737;29;20434;-47
2024/01/06 11:14:20;;;;;;;21.73;16.35;;;;;;;;;;4987954;28;20106;-49
2024/01/06 11:16:46;;;;;;;22.15;16.63;;;;;;;;;;4956310;29;20078;-48
2024/01/06 11:19:31;;;;;;;20.70;15.93;;;;;;;;;;4937598;29;20028;-47
2024/01/06 11:21:57;;;;;;;21.45;15.73;;;;;;;;;;4955320;28;20038;-48
2024/01/06 11:24:26;;;;;;;22.23;17.92;;;;;;;;;;4956443;29;20449;-47
2024/01/06 11:26:53;;;;;;;22.38;16.75;;;;;;;;;;4956286;29;20491;-47
2024/01/06 11:29:22;;;;;;;22.25;16.15;;;;;;;;;;4955142;29;20520;-49
2024/01/06 11:32:07;;;;;;;21.25;14.98;;;;;;;;;;4956107;29;20027;-47
2024/01/06 11:34:37;;;;;;;19.58;16.13;;;;;;;;;;4956593;28;20023;-47
2024/01/06 11:37:05;;;;;;;18.63;14.63;;;;;;;;;;4956352;28;20430;-48
2024/01/06 11:39:36;;;;;;;20.48;15.95;;;;;;;;;;4956443;29;20086;-48
2024/01/06 11:42:03;;;;;;;21.50;15.80;;;;;;;;;;4955958;29;20434;-48
2024/01/06 11:44:29;;;;;;;19.13;14.93;;;;;;;;;;4956029;29;20042;-48
2024/01/06 11:46:57;;;;;;;19.05;15.43;;;;;;;;;;4955237;29;20043;-47
2024/01/06 11:49:27;;;;;;;19.63;15.27;;;;;;;;;;4956091;29;20027;-49
2024/01/06 11:51:54;;;;;;;20.63;15.80;;;;;;;;;;4955675;29;20051;-48
2024/01/06 11:54:21;;;;;;;20.27;16.73;;;;;;;;;;4954905;29;20063;-48
2024/01/06 11:56:48;;;;;;;20.63;15.65;;;;;;;;;;4955242;28;20034;-51
2024/01/06 11:59:14;;;;;;;24.73;17.23;;;;;;;;;;4955906;28;20482;-48
2024/01/06 12:01:40;;;;;;;22.50;16.87;;;;;;;;;;4954134;29;20605;-48
2024/01/06 12:04:07;;;;;;;23.37;17.77;;;;;;;;;;4955527;28;20046;-50
2024/01/06 12:06:33;;;;;;;22.15;16.83;;;;;;;;;;4953334;28;20650;-48
2024/01/06 12:09:06;;;;;;;27.42;18.98;;;;;;;;;;4954204;29;20130;-48
2024/01/06 12:11:32;;;;;;;21.77;16.92;;;;;;;;;;4951971;29;20035;-48
2024/01/06 12:13:58;;;;;;;20.30;16.58;;;;;;;;;;4952558;29;20027;-48
2024/01/06 12:16:27;;;;;;;23.57;17.73;;;;;;;;;;4952257;29;20061;-52
2024/01/06 12:18:55;;;;;;;26.30;18.95;;;;;;;;;;4953171;28;20274;-51
2024/01/06 12:21:24;;;;;;;23.83;17.48;;;;;;;;;;4947900;29;20031;-48
2024/01/06 12:23:50;;;;;;;42.42;31.23;;;;;;;;;;4953619;29;20085;-47
2024/01/06 12:26:20;;;;;;;22.60;18.38;;;;;;;;;;4953739;29;20066;-48
2024/01/06 12:28:46;;;;;;;22.48;18.05;;;;;;;;;;4953713;28;20042;-50
2024/01/06 12:31:13;;;;;;;24.52;17.40;;;;;;;;;;4952738;29;20066;-51
2024/01/06 12:33:42;;;;;;;23.30;18.00;;;;;;;;;;4952967;28;20435;-48
2024/01/06 12:36:09;;;;;;;25.40;18.25;;;;;;;;;;4953014;29;20031;-47
2024/01/06 12:38:36;;;;;;;;;;;;;;;;;;4952859;29;20081;-49
2024/01/06 12:41:03;;;;;;;23.40;18.08;;;;;;;;;;4952490;29;19919;-51
2024/01/06 12:43:29;;;;;;;25.15;18.70;;;;;;;;;;4953574;28;20127;-48
2024/01/06 12:45:57;;;;;;;25.17;18.15;;;;;;;;;;4953911;29;20031;-49
2024/01/06 12:48:24;;;;;;;26.90;19.20;;;;;;;;;;4953258;28;20128;-51
2024/01/06 12:50:50;;;;;;;24.80;18.95;;;;;;;;;;4953533;28;20110;-51
2024/01/06 12:53:17;;;;;;;26.83;21.07;;;;;;;;;;4952890;28;20516;-49
2024/01/06 12:55:47;;;;;;;25.90;19.48;;;;;;;;;;4952256;29;20066;-49
2024/01/06 12:58:13;;;;;;;30.63;20.52;;;;;;;;;;4953763;28;20035;-48
2024/01/06 13:00:39;;;;;;;28.57;21.07;;;;;;;;;;4953236;28;20035;-51
2024/01/06 13:03:06;;;;;;;28.25;22.33;;;;;;;;;;4950607;29;20046;-49
2024/01/06 13:05:32;;;;;;;29.20;21.70;;;;;;;;;;4951940;29;20038;-52
2024/01/06 13:07:58;;;;;;;31.30;23.00;;;;;;;;;;4952970;28;20326;-50
2024/01/06 13:10:24;;;;;;;28.55;21.17;;;;;;;;;;4953269;29;20038;-52
2024/01/06 13:12:51;;;;;;;27.90;21.13;;;;;;;;;;4951967;29;20043;-48
2024/01/06 13:15:17;;;;;;;30.88;23.02;;;;;;;;;;4953037;28;20027;-50
2024/01/06 13:17:43;;;;;;;33.17;22.13;;;;;;;;;;4953097;29;20027;-50
2024/01/06 13:20:09;;;;;;;30.23;21.95;;;;;;;;;;4952981;28;20083;-49
2024/01/06 13:22:36;;;;;;;30.50;22.95;;;;;;;;;;4953219;29;20027;-49
2024/01/06 13:25:02;;;;;;;27.27;21.58;;;;;;;;;;4952927;29;20549;-48
2024/01/06 13:27:29;;;;;;;29.25;21.27;;;;;;;;;;4952771;28;20071;-48
2024/01/06 13:29:55;;;;;;;31.83;21.13;;;;;;;;;;4989939;23;20925;-51
2024/01/06 13:32:22;;;;;;;28.58;20.63;;;;;;;;;;4952838;28;20026;-55
2024/01/06 13:34:54;;;;;;;29.50;20.65;;;;;;;;;;4951191;29;20031;-51
2024/01/06 13:37:22;;;;;;;30.88;21.65;;;;;;;;;;4951594;29;20071;-52
2024/01/06 13:39:48;;;;;;;27.70;20.25;;;;;;;;;;4943387;29;20478;-52
2024/01/06 13:42:14;;;;;;;28.17;21.33;;;;;;;;;;4933372;29;20406;-48
2024/01/06 13:44:41;;;;;;;31.02;20.50;;;;;;;;;;4917221;29;20051;-54
2024/01/06 13:47:07;;;;;;;30.35;21.38;;;;;;;;;;4915019;29;20486;-50
2024/01/06 13:49:33;;;;;;;26.83;20.17;;;;;;;;;;4945803;28;20039;-50
2024/01/06 13:51:59;;;;;;;30.08;21.92;;;;;;;;;;4914655;29;20024;-51
2024/01/06 13:54:25;;;;;;;26.77;19.90;;;;;;;;;;4915880;29;20035;-56
2024/01/06 13:56:52;;;;;;;28.47;21.53;;;;;;;;;;4964140;28;20264;-56
2024/01/06 13:59:18;;;;;;;25.33;19.38;;;;;;;;;;4915821;29;20451;-51
2024/01/06 14:01:44;;;;;;;28.77;20.05;;;;;;;;;;4927401;29;20039;-51
2024/01/06 14:04:10;;;;;;;28.10;19.00;;;;;;;;;;4917700;29;20055;-48
2024/01/06 14:06:39;;;;;;;28.75;20.63;;;;;;;;;;4925808;29;20035;-49
2024/01/06 14:09:05;;;;;;;29.48;21.85;;;;;;;;;;4948103;28;20043;-49
2024/01/06 14:11:32;;;;;;;29.63;21.00;;;;;;;;;;4916902;29;20114;-49
2024/01/06 14:13:58;;;;;;;28.55;21.42;;;;;;;;;;4931758;29;20068;-48
2024/01/06 14:16:24;;;;;;;33.75;21.83;;;;;;;;;;4932733;29;20078;-53
2024/01/06 14:18:51;;;;;;;33.30;22.55;;;;;;;;;;4932252;29;20046;-51
2024/01/06 14:21:19;;;;;;;30.05;22.30;;;;;;;;;;4933314;29;20070;-51